createdAt,value
2019-04-26T00:01:35.228Z,16.80
2019-04-26T00:04:07.719Z,16.70
2019-04-26T00:06:40.122Z,16.70
2019-04-26T00:09:35.857Z,16.70
2019-04-26T00:12:25.234Z,16.70
2019-04-26T00:15:25.301Z,16.60
2019-04-26T00:18:00.176Z,16.60
2019-04-26T00:20:31.670Z,16.60
2019-04-26T00:23:03.883Z,16.60
2019-04-26T00:25:35.356Z,16.50
2019-04-26T00:28:07.055Z,16.50
2019-04-26T00:30:38.926Z,16.50
2019-04-26T00:33:11.915Z,16.50
2019-04-26T00:35:47.650Z,16.50
2019-04-26T00:38:18.121Z,16.30
2019-04-26T00:40:51.397Z,16.40
2019-04-26T00:43:24.319Z,16.30
2019-04-26T00:45:58.161Z,16.30
2019-04-26T00:48:31.494Z,16.30
2019-04-26T00:51:06.094Z,16.30
2019-04-26T00:53:39.402Z,16.20
2019-04-26T00:56:14.511Z,16.20
2019-04-26T00:58:47.115Z,16.10
2019-04-26T01:01:20.780Z,16.10
2019-04-26T01:03:52.729Z,16.10
2019-04-26T01:06:26.798Z,16.00
2019-04-26T01:08:58.935Z,16.00
2019-04-26T01:11:31.053Z,15.90
2019-04-26T01:14:02.909Z,15.90
2019-04-26T01:16:35.647Z,15.90
2019-04-26T01:19:09.528Z,15.90
2019-04-26T01:21:45.792Z,15.90
2019-04-26T01:24:19.367Z,15.90
2019-04-26T01:26:53.848Z,15.80
2019-04-26T01:29:28.004Z,15.80
2019-04-26T01:32:06.238Z,15.70
2019-04-26T01:37:31.767Z,15.70
2019-04-26T01:40:07.910Z,15.70
2019-04-26T01:42:51.032Z,15.60
2019-04-26T01:45:42.852Z,15.60
2019-04-26T01:48:38.569Z,15.60
2019-04-26T01:51:13.276Z,15.50
2019-04-26T01:53:47.620Z,15.50
2019-04-26T01:56:23.383Z,15.40
2019-04-26T01:58:55.549Z,15.30
2019-04-26T02:01:38.635Z,15.40
2019-04-26T02:04:11.388Z,15.40
2019-04-26T02:06:43.643Z,15.40
2019-04-26T02:09:16.365Z,15.40
2019-04-26T02:11:48.611Z,15.20
2019-04-26T02:14:19.983Z,15.10
2019-04-26T02:16:52.099Z,15.00
2019-04-26T02:19:25.755Z,15.00
2019-04-26T02:22:03.673Z,15.10
2019-04-26T02:24:39.729Z,15.00
2019-04-26T02:27:30.310Z,15.00
2019-04-26T02:30:04.722Z,15.00
2019-04-26T02:32:37.083Z,14.90
2019-04-26T02:35:10.180Z,14.80
2019-04-26T02:37:43.288Z,14.80
2019-04-26T02:40:18.482Z,14.60
2019-04-26T02:42:51.171Z,14.60
2019-04-26T02:46:00.348Z,14.60
2019-04-26T02:48:56.875Z,14.70
2019-04-26T02:51:36.331Z,14.70
2019-04-26T02:54:46.782Z,14.70
2019-04-26T02:57:29.772Z,14.70
2019-04-26T03:00:06.924Z,14.50
2019-04-26T03:02:40.433Z,14.50
2019-04-26T03:05:14.142Z,14.50
2019-04-26T03:08:15.122Z,14.50
2019-04-26T03:11:25.618Z,14.60
2019-04-26T03:14:19.175Z,14.50
2019-04-26T03:17:07.092Z,14.50
2019-04-26T03:19:49.078Z,14.50
2019-04-26T03:22:51.985Z,14.50
2019-04-26T03:25:33.306Z,14.40
2019-04-26T03:28:36.767Z,14.40
2019-04-26T03:31:53.516Z,14.40
2019-04-26T03:34:39.311Z,14.40
2019-04-26T03:37:48.614Z,14.20
2019-04-26T03:40:36.908Z,14.10
2019-04-26T03:43:20.966Z,14.20
2019-04-26T03:46:30.158Z,14.20
2019-04-26T03:49:57.272Z,14.30
2019-04-26T03:53:12.834Z,14.30
2019-04-26T03:56:57.489Z,14.40
2019-04-26T03:59:45.978Z,14.40
2019-04-26T04:02:41.570Z,14.50
2019-04-26T04:05:40.226Z,14.50
2019-04-26T04:08:16.822Z,14.50
2019-04-26T04:10:56.599Z,14.60
2019-04-26T04:13:50.964Z,14.70
2019-04-26T04:16:41.308Z,14.70
2019-04-26T04:19:55.921Z,14.80
2019-04-26T04:22:30.785Z,14.90
2019-04-26T04:25:05.919Z,14.90
2019-04-26T04:27:43.898Z,15.10
2019-04-26T04:30:31.693Z,15.10
2019-04-26T04:33:46.950Z,15.20
2019-04-26T04:36:23.818Z,15.20
2019-04-26T04:39:13.773Z,15.10
2019-04-26T04:42:36.138Z,15.10
2019-04-26T04:45:41.726Z,15.10
2019-04-26T04:48:29.835Z,15.20
2019-04-26T04:51:15.850Z,15.10
2019-04-26T04:54:02.224Z,15.30
2019-04-26T04:56:49.830Z,15.50
2019-04-26T04:59:28.564Z,15.50
2019-04-26T05:02:38.232Z,15.50
2019-04-26T05:05:33.193Z,15.60
2019-04-26T05:08:33.951Z,15.70
2019-04-26T05:11:28.800Z,15.70
2019-04-26T05:14:08.278Z,15.90
2019-04-26T05:17:16.250Z,15.90
2019-04-26T05:20:21.827Z,16.00
2019-04-26T05:23:24.507Z,16.10
2019-04-26T05:27:36.491Z,16.30
2019-04-26T05:31:00.562Z,16.50
2019-04-26T05:34:25.422Z,16.60
2019-04-26T05:37:23.492Z,16.60
2019-04-26T05:40:13.847Z,16.60
2019-04-26T05:43:29.549Z,16.70
2019-04-26T05:46:51.801Z,16.80
2019-04-26T05:50:28.243Z,16.90
2019-04-26T05:54:16.831Z,17.00
2019-04-26T05:57:12.723Z,17.10
2019-04-26T06:00:29.975Z,17.20
2019-04-26T06:03:35.005Z,17.40
2019-04-26T06:06:22.087Z,17.80
2019-04-26T06:09:48.361Z,18.40
2019-04-26T06:12:54.479Z,18.90
2019-04-26T06:15:48.663Z,19.60
2019-04-26T06:18:51.684Z,19.90
2019-04-26T06:21:43.220Z,20.30
2019-04-26T06:25:24.915Z,20.80
2019-04-26T06:28:07.744Z,21.10
2019-04-26T06:31:08.042Z,21.10
2019-04-26T06:33:58.748Z,21.30
2019-04-26T06:36:41.404Z,22.10
2019-04-26T06:39:35.942Z,22.60
2019-04-26T06:42:46.823Z,23.00
2019-04-26T06:45:59.160Z,23.50
2019-04-26T06:49:09.353Z,23.90
2019-04-26T06:51:56.222Z,23.90
2019-04-26T06:54:51.054Z,24.00
2019-04-26T06:58:07.966Z,24.60
2019-04-26T07:01:10.559Z,25.20
2019-04-26T07:04:23.204Z,25.90
2019-04-26T07:07:30.711Z,26.40
2019-04-26T07:10:25.386Z,27.10
2019-04-26T07:13:25.022Z,27.50
2019-04-26T07:16:19.660Z,28.20
2019-04-26T07:19:28.368Z,28.50
2019-04-26T07:22:34.840Z,28.60
2019-04-26T07:25:35.361Z,28.50
2019-04-26T07:29:00.079Z,28.70
2019-04-26T07:31:50.565Z,28.80
2019-04-26T07:34:57.840Z,29.10
2019-04-26T07:38:16.125Z,29.30
2019-04-26T07:41:40.465Z,29.30
2019-04-26T07:44:30.388Z,29.60
2019-04-26T07:47:33.410Z,30.70
2019-04-26T07:50:50.606Z,31.10
2019-04-26T07:53:33.641Z,31.40
2019-04-26T07:56:19.475Z,32.30
2019-04-26T07:59:30.543Z,31.90
2019-04-26T08:02:23.554Z,32.80
2019-04-26T08:05:03.278Z,33.20
2019-04-26T08:07:40.878Z,33.50
2019-04-26T08:10:18.588Z,33.50
2019-04-26T08:13:06.046Z,33.20
2019-04-26T08:16:08.524Z,33.90
2019-04-26T08:18:47.387Z,34.10
2019-04-26T08:21:36.113Z,34.30
2019-04-26T08:24:28.287Z,35.50
2019-04-26T08:27:18.650Z,35.40
2019-04-26T08:29:47.557Z,34.70
2019-04-26T08:32:32.137Z,34.30
2019-04-26T08:35:21.820Z,33.90
2019-04-26T08:37:58.554Z,33.90
2019-04-26T08:40:31.739Z,34.00
2019-04-26T08:43:33.708Z,34.30
2019-04-26T08:46:32.387Z,33.70
2019-04-26T08:49:13.028Z,34.20
2019-04-26T08:51:46.651Z,35.40
2019-04-26T08:54:25.036Z,36.20
2019-04-26T08:57:10.016Z,36.60
2019-04-26T08:59:46.638Z,36.70
2019-04-26T09:02:39.412Z,36.30
2019-04-26T09:05:21.240Z,37.10
2019-04-26T09:07:57.594Z,36.70
2019-04-26T09:10:32.875Z,37.50
2019-04-26T09:13:07.696Z,38.20
2019-04-26T09:16:06.453Z,38.10
2019-04-26T09:18:43.532Z,37.70
2019-04-26T09:21:13.313Z,38.00
2019-04-26T09:24:03.021Z,38.10
2019-04-26T09:26:53.452Z,39.60
2019-04-26T09:29:32.014Z,40.40
2019-04-26T09:32:17.055Z,40.10
2019-04-26T09:34:49.879Z,40.70
2019-04-26T09:37:22.632Z,40.90
2019-04-26T09:39:55.795Z,40.90
2019-04-26T09:42:42.601Z,40.70
2019-04-26T09:45:44.778Z,40.90
2019-04-26T09:48:25.525Z,41.20
2019-04-26T09:50:57.481Z,41.40
2019-04-26T09:53:30.016Z,41.10
2019-04-26T09:56:01.808Z,41.70
2019-04-26T09:58:32.961Z,42.40
2019-04-26T10:01:06.339Z,41.70
2019-04-26T10:03:38.352Z,40.50
2019-04-26T10:06:10.129Z,39.50
2019-04-26T10:08:43.357Z,39.70
2019-04-26T10:11:18.404Z,40.00
2019-04-26T10:13:56.085Z,39.70
2019-04-26T10:16:37.236Z,39.50
2019-04-26T10:19:11.845Z,39.50
2019-04-26T10:21:44.131Z,39.60
2019-04-26T10:24:16.199Z,40.50
2019-04-26T10:26:48.060Z,40.90
2019-04-26T10:29:21.797Z,40.90
2019-04-26T10:31:55.014Z,40.60
2019-04-26T10:34:27.633Z,40.60
2019-04-26T10:37:01.579Z,39.80
2019-04-26T10:39:36.823Z,40.20
2019-04-26T10:42:07.754Z,40.50
2019-04-26T10:44:40.020Z,41.00
2019-04-26T10:47:12.374Z,40.30
2019-04-26T10:49:50.592Z,40.20
2019-04-26T10:52:38.176Z,40.40
2019-04-26T10:55:42.078Z,40.50
2019-04-26T10:58:36.303Z,39.60
2019-04-26T11:01:14.248Z,38.60
2019-04-26T11:03:46.008Z,38.00
2019-04-26T11:06:19.472Z,38.70
2019-04-26T11:08:51.551Z,39.50
2019-04-26T11:11:24.306Z,39.80
2019-04-26T11:13:57.512Z,40.20
2019-04-26T11:16:29.255Z,39.60
2019-04-26T11:19:02.233Z,38.60
2019-04-26T11:21:34.214Z,37.50
2019-04-26T11:24:06.675Z,37.70
2019-04-26T11:26:38.805Z,37.60
2019-04-26T11:29:10.849Z,37.30
2019-04-26T11:31:44.446Z,36.80
2019-04-26T11:34:19.229Z,36.60
2019-04-26T11:36:49.583Z,35.00
2019-04-26T11:39:21.575Z,34.10
2019-04-26T11:41:53.435Z,34.00
2019-04-26T11:44:27.612Z,33.80
2019-04-26T11:46:59.419Z,34.10
2019-04-26T11:49:31.668Z,33.90
2019-04-26T11:52:04.078Z,34.50
2019-04-26T11:54:36.329Z,34.80
2019-04-26T11:57:12.018Z,35.20
2019-04-26T11:59:41.491Z,35.20
2019-04-26T12:02:16.257Z,34.90
2019-04-26T12:05:08.529Z,33.90
2019-04-26T12:07:45.103Z,33.00
2019-04-26T12:10:16.430Z,32.40
2019-04-26T12:12:51.711Z,32.60
2019-04-26T12:15:30.135Z,34.40
2019-04-26T12:17:58.846Z,35.80
2019-04-26T12:20:28.886Z,36.80
2019-04-26T12:23:00.684Z,38.10
2019-04-26T12:25:32.534Z,39.40
2019-04-26T12:28:05.998Z,39.80
2019-04-26T12:30:38.875Z,40.40
2019-04-26T12:33:10.994Z,40.00
2019-04-26T12:35:44.597Z,39.90
2019-04-26T12:38:17.389Z,40.30
2019-04-26T12:40:49.707Z,40.80
2019-04-26T12:43:24.468Z,40.60
2019-04-26T12:46:27.241Z,40.70
2019-04-26T12:48:59.268Z,40.10
2019-04-26T12:51:31.036Z,40.90
2019-04-26T12:54:03.747Z,41.30
2019-04-26T12:56:36.262Z,41.10
2019-04-26T12:59:07.607Z,40.30
2019-04-26T13:01:42.601Z,39.60
2019-04-26T13:04:11.967Z,39.60
2019-04-26T13:06:48.056Z,39.60
2019-04-26T13:09:21.728Z,40.20
2019-04-26T13:12:20.206Z,40.90
2019-04-26T13:15:09.031Z,40.50
2019-04-26T13:17:45.108Z,39.40
2019-04-26T13:20:17.002Z,39.10
2019-04-26T13:22:50.221Z,39.80
2019-04-26T13:25:26.600Z,40.70
2019-04-26T13:27:55.526Z,41.00
2019-04-26T13:30:32.913Z,40.90
2019-04-26T13:33:00.401Z,40.50
2019-04-26T13:35:31.748Z,40.30
2019-04-26T13:38:05.069Z,40.00
2019-04-26T13:40:36.362Z,40.20
2019-04-26T13:43:08.941Z,40.70
2019-04-26T13:45:54.927Z,40.70
2019-04-26T13:48:39.176Z,40.70
2019-04-26T13:51:11.110Z,39.50
2019-04-26T13:53:42.941Z,39.60
2019-04-26T13:56:15.205Z,39.30
2019-04-26T13:58:47.463Z,39.30
2019-04-26T14:01:20.239Z,40.00
2019-04-26T14:03:52.619Z,40.20
2019-04-26T14:06:24.578Z,40.60
2019-04-26T14:08:58.219Z,40.80
2019-04-26T14:11:29.850Z,40.70
2019-04-26T14:14:01.820Z,40.90
2019-04-26T14:16:34.011Z,40.60
2019-04-26T14:19:05.799Z,41.00
2019-04-26T14:21:38.685Z,41.40
2019-04-26T14:24:39.048Z,41.30
2019-04-26T14:27:15.305Z,41.30
2019-04-26T14:29:48.047Z,40.10
2019-04-26T14:32:22.881Z,37.90
2019-04-26T14:34:53.226Z,35.70
2019-04-26T14:37:24.643Z,35.10
2019-04-26T14:39:59.220Z,35.50
2019-04-26T14:42:34.437Z,36.40
2019-04-26T14:45:06.057Z,36.80
2019-04-26T14:47:47.141Z,37.20
2019-04-26T14:50:14.007Z,37.10
2019-04-26T14:52:45.565Z,37.10
2019-04-26T14:55:21.164Z,36.60
2019-04-26T14:57:53.908Z,35.80
2019-04-26T15:00:30.191Z,35.50
2019-04-26T15:03:21.138Z,35.60
2019-04-26T15:06:16.746Z,35.40
2019-04-26T15:08:48.888Z,35.30
2019-04-26T15:11:22.781Z,35.00
2019-04-26T15:13:54.265Z,34.50
2019-04-26T15:16:25.434Z,33.90
2019-04-26T15:18:56.835Z,33.70
2019-04-26T15:21:31.782Z,33.40
2019-04-26T15:24:02.835Z,33.00
2019-04-26T15:26:35.225Z,33.00
2019-04-26T15:29:07.717Z,32.70
2019-04-26T15:31:40.806Z,32.80
2019-04-26T15:34:12.558Z,32.80
2019-04-26T15:36:47.822Z,32.80
2019-04-26T15:39:28.744Z,32.90
2019-04-26T15:42:12.913Z,32.50
2019-04-26T15:45:06.473Z,32.10
2019-04-26T15:47:53.293Z,31.50
2019-04-26T15:50:40.867Z,31.20
2019-04-26T15:53:14.667Z,30.80
2019-04-26T15:55:46.974Z,30.70
2019-04-26T15:58:18.639Z,30.60
2019-04-26T16:00:50.684Z,30.50
2019-04-26T16:03:23.015Z,30.30
2019-04-26T16:05:55.064Z,30.30
2019-04-26T16:08:27.024Z,30.20
2019-04-26T16:10:59.125Z,30.00
2019-04-26T16:13:32.273Z,29.40
2019-04-26T16:16:04.037Z,29.20
2019-04-26T16:18:35.824Z,28.90
2019-04-26T16:21:13.577Z,28.50
2019-04-26T16:23:51.038Z,28.20
2019-04-26T16:26:15.791Z,27.90
2019-04-26T16:29:05.988Z,27.70
2019-04-26T16:31:49.148Z,27.80
2019-04-26T16:34:20.711Z,27.60
2019-04-26T16:36:52.759Z,27.50
2019-04-26T16:39:28.457Z,27.30
2019-04-26T16:41:59.267Z,27.20
2019-04-26T16:44:33.359Z,27.20
2019-04-26T16:47:06.201Z,27.10
2019-04-26T16:49:41.765Z,26.90
2019-04-26T16:52:13.981Z,26.80
2019-04-26T16:54:45.233Z,26.60
2019-04-26T16:57:16.898Z,26.40
2019-04-26T16:59:54.455Z,26.40
2019-04-26T17:02:26.490Z,26.40
2019-04-26T17:04:55.764Z,26.30
2019-04-26T17:07:28.876Z,26.40
2019-04-26T17:10:03.130Z,26.50
2019-04-26T17:12:37.148Z,26.40
2019-04-26T17:15:10.099Z,26.40
2019-04-26T17:17:45.194Z,26.40
2019-04-26T17:20:16.453Z,26.40
2019-04-26T17:23:12.465Z,26.40
2019-04-26T17:26:08.753Z,26.20
2019-04-26T17:28:42.683Z,26.20
2019-04-26T17:31:15.034Z,26.00
2019-04-26T17:33:46.564Z,25.80
2019-04-26T17:36:18.039Z,25.90
2019-04-26T17:38:50.643Z,25.70
2019-04-26T17:41:28.338Z,25.60
2019-04-26T17:44:07.966Z,25.50
2019-04-26T17:46:33.216Z,25.40
2019-04-26T17:49:04.521Z,25.20
2019-04-26T17:51:43.699Z,25.10
2019-04-26T17:54:26.484Z,25.00
2019-04-26T17:56:44.205Z,24.90
2019-04-26T17:59:32.816Z,24.80
2019-04-26T18:01:57.282Z,24.60
2019-04-26T18:04:32.219Z,24.40
2019-04-26T18:07:03.859Z,24.40
2019-04-26T18:09:44.706Z,24.40
2019-04-26T18:12:06.452Z,24.50
2019-04-26T18:14:37.800Z,24.40
2019-04-26T18:17:40.135Z,24.40
2019-04-26T18:20:41.626Z,24.30
2019-04-26T18:23:18.547Z,24.30
2019-04-26T18:25:48.618Z,24.20
2019-04-26T18:28:20.231Z,24.20
2019-04-26T18:30:53.103Z,24.10
2019-04-26T18:33:26.065Z,24.10
2019-04-26T18:35:58.739Z,24.00
2019-04-26T18:38:30.214Z,23.80
2019-04-26T18:41:03.732Z,23.80
2019-04-26T18:43:36.066Z,23.80
2019-04-26T18:46:14.075Z,23.60
2019-04-26T18:48:45.605Z,23.50
2019-04-26T18:51:17.314Z,23.30
2019-04-26T18:54:14.445Z,23.30
2019-04-26T18:56:47.596Z,23.20
2019-04-26T18:59:19.739Z,23.10
2019-04-26T19:01:53.369Z,23.10
2019-04-26T19:04:24.571Z,23.00
2019-04-26T19:06:56.756Z,23.00
2019-04-26T19:09:31.070Z,23.00
2019-04-26T19:12:03.194Z,23.00
2019-04-26T19:15:09.046Z,23.00
2019-04-26T19:18:04.385Z,23.00
2019-04-26T19:20:49.448Z,23.00
2019-04-26T19:23:24.445Z,23.00
2019-04-26T19:25:55.246Z,23.00
2019-04-26T19:28:27.285Z,23.10
2019-04-26T19:30:59.119Z,23.10
2019-04-26T19:33:32.327Z,23.00
2019-04-26T19:36:05.209Z,22.90
2019-04-26T19:38:43.291Z,22.70
2019-04-26T19:41:12.885Z,22.70
2019-04-26T19:43:46.201Z,22.70
2019-04-26T19:46:44.265Z,22.70
2019-04-26T19:49:54.553Z,22.60
2019-04-26T19:52:47.876Z,22.50
2019-04-26T19:55:31.853Z,22.30
2019-04-26T19:58:09.690Z,22.20
2019-04-26T20:00:43.430Z,22.20
2019-04-26T20:03:16.716Z,22.20
2019-04-26T20:05:52.574Z,22.30
2019-04-26T20:08:24.636Z,22.20
2019-04-26T20:10:56.084Z,22.30
2019-04-26T20:13:31.567Z,22.30
2019-04-26T20:16:05.915Z,22.30
2019-04-26T20:18:38.987Z,22.30
2019-04-26T20:21:15.202Z,22.20
2019-04-26T20:23:47.445Z,22.20
2019-04-26T20:26:18.484Z,22.20
2019-04-26T20:28:51.406Z,22.20
2019-04-26T20:31:44.937Z,22.20
2019-04-26T20:34:15.259Z,22.20
2019-04-26T20:36:47.720Z,22.20
2019-04-26T20:39:20.990Z,22.10
2019-04-26T20:42:01.168Z,22.00
2019-04-26T20:44:28.871Z,22.00
2019-04-26T20:47:03.479Z,22.00
2019-04-26T20:49:47.211Z,21.90
2019-04-26T20:52:08.479Z,21.80
2019-04-26T20:54:41.681Z,21.70
2019-04-26T20:57:13.870Z,21.60
2019-04-26T20:59:45.842Z,21.50
2019-04-26T21:02:20.982Z,21.50
2019-04-26T21:04:51.504Z,21.50
2019-04-26T21:07:23.978Z,21.40
2019-04-26T21:09:55.751Z,21.40
2019-04-26T21:12:27.829Z,21.50
2019-04-26T21:14:59.884Z,21.40
2019-04-26T21:17:32.312Z,21.20
2019-04-26T21:20:04.436Z,21.00
2019-04-26T21:22:37.327Z,20.60
2019-04-26T21:25:15.627Z,20.30
2019-04-26T21:28:11.586Z,20.10
2019-04-26T21:31:17.624Z,20.00
2019-04-26T21:34:15.222Z,19.80
2019-04-26T21:37:06.176Z,19.60
2019-04-26T21:40:00.799Z,19.50
2019-04-26T21:42:33.385Z,19.20
2019-04-26T21:45:05.380Z,19.10
2019-04-26T21:47:37.366Z,18.90
2019-04-26T21:50:09.486Z,18.90
2019-04-26T21:52:40.372Z,18.80
2019-04-26T21:55:13.966Z,18.70
2019-04-26T21:57:47.019Z,18.70
2019-04-26T22:00:39.307Z,18.60
2019-04-26T22:03:14.254Z,18.50
2019-04-26T22:05:49.715Z,18.40
2019-04-26T22:08:24.497Z,18.30
2019-04-26T22:10:53.481Z,18.20
2019-04-26T22:13:37.308Z,18.20
2019-04-26T22:16:33.476Z,18.10
2019-04-26T22:18:59.898Z,18.00
2019-04-26T22:21:49.298Z,17.80
2019-04-26T22:24:29.806Z,17.60
2019-04-26T22:27:01.516Z,17.50
2019-04-26T22:29:33.400Z,17.40
2019-04-26T22:32:05.366Z,17.30
2019-04-26T22:34:37.408Z,17.30
2019-04-26T22:37:12.610Z,17.10
2019-04-26T22:39:44.365Z,17.00
2019-04-26T22:42:16.152Z,16.90
2019-04-26T22:45:13.459Z,16.80
2019-04-26T22:47:56.613Z,16.70
2019-04-26T22:50:28.747Z,16.60
2019-04-26T22:53:01.294Z,16.40
2019-04-26T22:55:33.341Z,16.30
2019-04-26T22:58:05.282Z,16.00
2019-04-26T23:00:40.193Z,15.90
2019-04-26T23:03:13.626Z,15.90
2019-04-26T23:05:45.307Z,15.80
2019-04-26T23:08:16.917Z,15.70
2019-04-26T23:10:51.033Z,15.60
2019-04-26T23:13:41.270Z,15.60
2019-04-26T23:16:20.000Z,15.40
2019-04-26T23:18:57.392Z,15.30
2019-04-26T23:21:35.766Z,15.20
2019-04-26T23:24:07.495Z,15.10
2019-04-26T23:26:41.674Z,15.00
2019-04-26T23:29:16.287Z,15.00
2019-04-26T23:31:46.377Z,15.00
2019-04-26T23:34:18.515Z,14.70
2019-04-26T23:36:50.834Z,14.70
2019-04-26T23:39:22.778Z,14.60
2019-04-26T23:41:55.587Z,14.40
2019-04-26T23:44:29.270Z,14.30
2019-04-26T23:47:02.162Z,14.20
2019-04-26T23:49:34.661Z,14.10
2019-04-26T23:52:06.866Z,14.10
2019-04-26T23:54:38.849Z,14.10
2019-04-26T23:57:10.386Z,14.10
2019-04-26T23:59:43.128Z,13.90
